Time;durP1;ratioP1;P1;durP2;ratioP2;P2;SDS_P1;SDS_P2;PMS_P1;PMS_P2;Temp;Humidity;BMP_temperature;BMP_pressure;BME280_temperature;BME280_humidity;BME280_pressure;Samples;Min_cycle;Max_cycle;Signal;HPM_P1;HPM_P2
2021/06/28 00:00:57;;;;;;;13.27;10.43;;;;;;;21.41;100.00;98648.69;4988122;28;20049;-64
2021/06/28 00:03:29;;;;;;;12.98;11.00;;;;;;;21.42;100.00;98640.63;4986096;28;20132;-63
2021/06/28 00:05:55;;;;;;;14.27;10.10;;;;;;;21.43;100.00;98634.38;4987424;28;20049;-65
2021/06/28 00:08:21;;;;;;;14.95;10.93;;;;;;;21.44;100.00;98636.03;4987482;28;20065;-64
2021/06/28 00:10:47;;;;;;;14.93;9.55;;;;;;;21.43;100.00;98625.59;4988251;28;20525;-64
2021/06/28 00:13:13;;;;;;;16.70;10.23;;;;;;;21.43;100.00;98623.78;4986693;28;20042;-65
2021/06/28 00:15:39;;;;;;;15.00;9.98;;;;;;;21.44;100.00;98635.22;4988438;28;20137;-65
2021/06/28 00:18:06;;;;;;;12.98;10.35;;;;;;;21.45;100.00;98631.59;4990908;28;20086;-64
2021/06/28 00:20:33;;;;;;;14.40;10.15;;;;;;;21.44;100.00;98636.03;4992380;28;20046;-64
2021/06/28 00:23:00;;;;;;;11.93;10.32;;;;;;;21.45;100.00;98640.34;4991590;28;20056;-64
2021/06/28 00:25:26;;;;;;;16.00;10.35;;;;;;;21.46;100.00;98638.50;4991892;28;20077;-63
2021/06/28 00:27:52;;;;;;;11.73;10.15;;;;;;;21.47;100.00;98637.53;4987949;28;20038;-63
2021/06/28 00:30:19;;;;;;;14.43;9.98;;;;;;;21.47;100.00;98634.91;4988156;28;20052;-62
2021/06/28 00:32:45;;;;;;;12.55;9.68;;;;;;;21.47;100.00;98645.47;4987976;28;20081;-63
2021/06/28 00:35:11;;;;;;;12.15;9.75;;;;;;;21.46;100.00;98642.00;4987420;28;20478;-64
2021/06/28 00:37:38;;;;;;;10.75;9.10;;;;;;;21.46;100.00;98652.56;5502560;23;20530;-63
2021/06/28 00:40:06;;;;;;;11.77;9.50;;;;;;;21.48;100.00;98649.78;5012830;28;20041;-64
2021/06/28 00:42:32;;;;;;;13.63;10.10;;;;;;;21.47;100.00;98645.47;5030567;28;20127;-64
2021/06/28 00:44:58;;;;;;;12.52;10.68;;;;;;;21.46;100.00;98647.28;5031428;28;20446;-64
2021/06/28 00:47:24;;;;;;;15.25;10.20;;;;;;;21.45;100.00;98661.50;5030986;28;20407;-64
2021/06/28 00:49:50;;;;;;;13.65;10.40;;;;;;;21.44;100.00;98686.28;5031500;28;20052;-63
2021/06/28 00:52:16;;;;;;;10.52;9.30;;;;;;;21.36;100.00;98703.84;5031753;28;20094;-63
2021/06/28 00:54:42;;;;;;;13.43;9.63;;;;;;;21.26;100.00;98701.22;5033918;28;20041;-64
2021/06/28 00:57:07;;;;;;;11.55;10.15;;;;;;;21.22;100.00;98710.44;5051159;28;20056;-64
2021/06/28 00:59:34;;;;;;;12.02;10.60;;;;;;;21.20;100.00;98709.72;5051085;28;20612;-64
2021/06/28 01:02:03;;;;;;;12.98;9.80;;;;;;;21.23;100.00;98698.03;5022188;28;20045;-64
2021/06/28 01:04:29;;;;;;;13.00;9.95;;;;;;;21.27;100.00;98681.75;5030747;28;20056;-63
2021/06/28 01:06:56;;;;;;;15.75;9.93;;;;;;;21.34;100.00;98679.38;5029429;28;20042;-64
2021/06/28 01:09:22;;;;;;;15.65;10.77;;;;;;;21.39;100.00;98690.34;5041597;28;20036;-63
2021/06/28 01:11:49;;;;;;;14.38;10.80;;;;;;;21.39;100.00;98698.28;5044661;28;20037;-63
2021/06/28 01:14:15;;;;;;;13.32;10.48;;;;;;;21.39;100.00;98693.81;5049444;28;20096;-63
2021/06/28 01:16:43;;;;;;;16.33;10.95;;;;;;;21.38;100.00;98680.75;5050779;28;20507;-63
2021/06/28 01:19:10;;;;;;;15.38;11.35;;;;;;;21.42;100.00;98685.59;5053216;28;20037;-63
2021/06/28 01:21:39;;;;;;;13.57;11.30;;;;;;;21.43;100.00;98687.25;5034131;28;20044;-63
2021/06/28 01:24:05;;;;;;;13.75;10.77;;;;;;;21.43;100.00;98679.31;5016340;28;20038;-63
2021/06/28 01:26:31;;;;;;;15.35;11.52;;;;;;;21.44;100.00;98665.13;5017924;28;20046;-63
2021/06/28 01:28:57;;;;;;;12.77;10.98;;;;;;;21.47;100.00;98650.75;5054468;28;20052;-64
2021/06/28 01:31:37;;;;;;;18.50;11.57;;;;;;;21.50;100.00;98659.25;5047065;28;20049;-64
2021/06/28 01:34:02;;;;;;;15.40;10.63;;;;;;;21.52;100.00;98656.44;5016740;28;20044;-64
2021/06/28 01:36:43;;;;;;;16.17;11.02;;;;;;;21.50;100.00;98659.25;5042114;28;20044;-63
2021/06/28 01:39:09;;;;;;;12.88;11.52;;;;;;;21.51;100.00;98652.16;5033338;28;20072;-62
2021/06/28 01:41:34;;;;;;;14.82;11.25;;;;;;;21.52;100.00;98632.66;5030829;28;20068;-63
2021/06/28 01:44:00;;;;;;;17.33;11.13;;;;;;;21.56;100.00;98620.81;5042419;28;20033;-62
2021/06/28 01:46:26;;;;;;;15.60;11.35;;;;;;;21.60;100.00;98606.31;5037490;28;20494;-63
2021/06/28 01:48:52;;;;;;;17.67;11.20;;;;;;;21.63;100.00;98589.28;5034022;28;20504;-62
2021/06/28 01:51:17;;;;;;;14.90;11.05;;;;;;;21.64;100.00;98591.78;5028254;28;20047;-63
2021/06/28 01:53:44;;;;;;;17.77;12.85;;;;;;;21.65;100.00;98597.91;5033625;28;20055;-63
2021/06/28 01:56:11;;;;;;;18.05;14.65;;;;;;;21.68;100.00;98605.53;5033859;28;20483;-61
2021/06/28 01:58:37;;;;;;;19.13;13.43;;;;;;;21.70;100.00;98601.78;5028556;28;20069;-62
2021/06/28 02:01:05;;;;;;;18.75;13.57;;;;;;;21.74;100.00;98595.19;5034298;28;20052;-63
2021/06/28 02:03:36;;;;;;;15.48;12.75;;;;;;;21.78;100.00;98582.50;5049068;28;20503;-62
2021/06/28 02:06:02;;;;;;;15.88;12.82;;;;;;;21.83;100.00;98561.72;5053560;28;20048;-63
2021/06/28 02:08:30;;;;;;;20.52;12.63;;;;;;;21.87;100.00;98566.56;5039368;28;20041;-63
2021/06/28 02:11:02;;;;;;;16.20;12.80;;;;;;;21.92;100.00;98571.41;5033022;28;20041;-52
2021/06/28 02:13:29;;;;;;;17.70;12.68;;;;;;;21.94;100.00;98578.22;5053846;28;20095;-63
2021/06/28 02:15:56;;;;;;;21.45;14.23;;;;;;;21.98;100.00;98580.59;5041337;28;20038;-64
2021/06/28 02:18:24;;;;;;;18.17;14.63;;;;;;;21.98;100.00;98574.28;5031391;28;20499;-63
2021/06/28 02:20:52;;;;;;;18.10;13.15;;;;;;;22.03;100.00;98557.16;5033588;28;20060;-64
2021/06/28 02:23:20;;;;;;;16.05;13.10;;;;;;;22.08;100.00;98545.13;5036910;28;20073;-64
2021/06/28 02:25:50;;;;;;;17.27;13.85;;;;;;;22.13;100.00;98526.13;5032888;28;20045;-63
2021/06/28 02:28:17;;;;;;;16.73;14.20;;;;;;;22.18;100.00;98519.38;5032943;28;20053;-64
2021/06/28 02:30:43;;;;;;;15.93;13.80;;;;;;;22.24;100.00;98523.25;5033073;28;20049;-64
2021/06/28 02:33:08;;;;;;;17.92;13.50;;;;;;;22.28;100.00;98535.19;5051056;28;20692;-64
2021/06/28 02:35:34;;;;;;;20.65;13.38;;;;;;;22.30;100.00;98541.13;5041809;28;20136;-64
2021/06/28 02:38:00;;;;;;;21.38;14.35;;;;;;;22.33;100.00;98541.69;5028718;28;20084;-63
2021/06/28 02:40:25;;;;;;;28.77;16.45;;;;;;;22.35;100.00;98530.91;5027549;28;20049;-64
2021/06/28 02:43:11;;;;;;;20.95;13.85;;;;;;;22.38;100.00;98520.84;5010581;28;20050;-64
2021/06/28 02:45:39;;;;;;;19.23;15.00;;;;;;;22.42;100.00;98521.38;5027918;28;20053;-63
2021/06/28 02:48:06;;;;;;;25.83;15.38;;;;;;;22.47;100.00;98523.53;5018686;28;20042;-63
2021/06/28 02:50:32;;;;;;;23.83;14.98;;;;;;;22.50;100.00;98524.09;5030943;28;20041;-63
2021/06/28 02:52:57;;;;;;;24.85;15.88;;;;;;;22.54;100.00;98524.59;5036777;28;20041;-64
2021/06/28 02:55:23;;;;;;;18.75;13.93;;;;;;;22.58;100.00;98512.69;5015281;28;20068;-64
2021/06/28 02:57:50;;;;;;;20.63;14.75;;;;;;;22.61;100.00;98502.59;5032812;28;20045;-62
2021/06/28 03:00:17;;;;;;;21.23;14.85;;;;;;;22.62;100.00;98504.25;5033461;28;20037;-64
2021/06/28 03:02:43;;;;;;;24.67;15.52;;;;;;;22.66;100.00;98516.19;5033230;28;20053;-64
2021/06/28 03:05:10;;;;;;;35.10;17.50;;;;;;;22.69;100.00;98523.03;5052626;28;20049;-63
2021/06/28 03:07:37;;;;;;;26.50;16.77;;;;;;;22.72;100.00;98528.03;5028750;28;20514;-63
2021/06/28 03:10:08;;;;;;;22.65;16.70;;;;;;;22.76;99.56;98521.44;5032457;28;20712;-63
2021/06/28 03:12:34;;;;;;;23.05;17.13;;;;;;;22.79;98.97;98502.56;5031977;28;20044;-64
2021/06/28 03:15:00;;;;;;;25.98;16.40;;;;;;;22.83;98.41;98511.84;5032798;28;20037;-63
2021/06/28 03:17:26;;;;;;;24.20;16.70;;;;;;;22.89;98.15;98505.09;5028702;28;20601;-63
2021/06/28 03:19:52;;;;;;;27.10;17.92;;;;;;;22.94;97.24;98506.28;5028664;28;20041;-63
2021/06/28 03:22:18;;;;;;;21.73;16.13;;;;;;;23.01;96.85;98503.81;5026959;28;20083;-63
2021/06/28 03:24:44;;;;;;;19.17;15.48;;;;;;;23.01;96.06;98504.66;5027325;28;20046;-63
2021/06/28 03:27:10;;;;;;;17.67;13.68;;;;;;;23.06;95.05;98512.13;5027933;28;20045;-63
2021/06/28 03:29:36;;;;;;;17.10;12.90;;;;;;;23.08;94.75;98505.66;5027065;28;20045;-63
2021/06/28 03:32:03;;;;;;;17.85;14.32;;;;;;;23.09;94.54;98507.31;5027474;28;20103;-64
2021/06/28 03:34:28;;;;;;;16.77;12.77;;;;;;;23.13;94.69;98507.84;5026267;28;20607;-64
2021/06/28 03:36:54;;;;;;;17.58;11.82;;;;;;;23.18;93.92;98506.38;5029627;28;20116;-64
2021/06/28 03:39:19;;;;;;;15.93;12.23;;;;;;;23.28;92.99;98495.63;5039311;28;20075;-63
2021/06/28 03:41:45;;;;;;;16.35;12.50;;;;;;;23.39;91.78;98484.72;5034606;28;20041;-63
2021/06/28 03:44:11;;;;;;;14.77;12.15;;;;;;;23.54;90.00;98474.31;5032164;28;20044;-64
2021/06/28 03:46:54;;;;;;;14.77;12.02;;;;;;;23.78;88.36;98470.84;5445586;22;20033;31
2021/06/28 03:49:20;;;;;;;17.00;13.45;;;;;;;24.01;86.31;98454.09;4948187;28;20055;-63
2021/06/28 03:51:46;;;;;;;18.40;13.05;;;;;;;24.13;85.07;98459.88;4966555;28;20047;-64
2021/06/28 03:54:11;;;;;;;15.05;12.75;;;;;;;24.15;84.45;98462.38;4954335;28;20110;-63
2021/06/28 03:56:37;;;;;;;14.43;12.15;;;;;;;24.19;84.29;98453.09;4953769;28;20043;-64
2021/06/28 03:59:03;;;;;;;17.33;12.63;;;;;;;24.20;84.16;98457.41;4954130;28;20547;-64
2021/06/28 04:01:28;;;;;;;16.30;12.13;;;;;;;24.25;84.14;98457.72;4951139;28;20069;-62
2021/06/28 04:03:55;;;;;;;13.90;12.05;;;;;;;24.31;84.01;98454.41;4949853;28;20043;-64
2021/06/28 04:06:22;;;;;;;16.20;12.48;;;;;;;24.38;83.22;98429.66;4948361;28;20422;-64
2021/06/28 04:08:48;;;;;;;13.63;12.05;;;;;;;24.44;82.23;98420.97;5448652;23;20051;-64
2021/06/28 04:11:13;;;;;;;13.70;11.82;;;;;;;24.52;81.71;98416.66;4960296;28;20121;-65
2021/06/28 04:13:40;;;;;;;16.42;12.32;;;;;;;24.60;81.24;98408.66;4961611;28;20047;-63
2021/06/28 04:16:05;;;;;;;15.40;12.95;;;;;;;24.62;80.66;98406.63;4970012;28;20047;-63
2021/06/28 04:18:31;;;;;;;13.27;11.88;;;;;;;24.56;80.31;98394.88;4964343;28;20042;-64
2021/06/28 04:21:03;;;;;;;14.65;12.63;;;;;;;24.48;80.94;98394.91;4952016;28;20094;-62
2021/06/28 04:23:29;;;;;;;19.73;12.38;;;;;;;24.42;81.46;98390.28;4949611;28;20075;-62
2021/06/28 04:25:55;;;;;;;15.38;12.80;;;;;;;24.39;81.09;98385.31;4948937;28;20081;-63
2021/06/28 04:28:20;;;;;;;14.68;13.10;;;;;;;24.40;81.26;98382.47;4936102;29;20043;-64
2021/06/28 04:30:46;;;;;;;14.20;11.75;;;;;;;24.42;81.02;98388.47;4950207;28;20489;-64
2021/06/28 04:33:12;;;;;;;16.77;13.48;;;;;;;24.46;80.50;98389.75;4935347;29;20142;-65
2021/06/28 04:35:38;;;;;;;17.38;12.85;;;;;;;24.56;80.07;98388.72;4952702;28;20046;-61
2021/06/28 04:38:04;;;;;;;13.90;12.10;;;;;;;24.72;79.93;98393.97;4946477;28;20090;-64
2021/06/28 04:40:30;;;;;;;15.00;13.35;;;;;;;24.89;78.65;98392.91;4948507;28;21734;-63
2021/06/28 04:42:56;;;;;;;14.23;12.20;;;;;;;24.96;78.02;98390.41;4948304;28;20135;-63
2021/06/28 04:47:41;;;;;;;17.10;13.10;;;;;;;24.94;78.06;98377.28;5046304;28;20394;-62
2021/06/28 04:50:07;;;;;;;17.85;14.80;;;;;;;25.01;77.71;98370.25;5036085;28;20427;-62
2021/06/28 04:52:35;;;;;;;14.73;13.23;;;;;;;25.10;76.85;98371.03;5041455;28;20502;-61
2021/06/28 04:55:02;;;;;;;17.70;14.77;;;;;;;25.24;76.01;98364.94;5063562;28;20098;-63
2021/06/28 04:57:28;;;;;;;17.42;12.55;;;;;;;25.34;75.41;98373.50;5044798;28;20053;-61
2021/06/28 04:59:54;;;;;;;14.93;12.90;;;;;;;25.38;75.08;98388.13;5037698;28;20060;-60
2021/06/28 05:02:20;;;;;;;18.90;12.90;;;;;;;25.49;74.95;98402.84;5040253;28;20124;-60
2021/06/28 05:04:47;;;;;;;17.88;13.40;;;;;;;25.64;74.54;98414.41;5044615;28;20037;-61
2021/06/28 05:07:16;;;;;;;18.83;12.88;;;;;;;25.76;74.46;98428.91;5047108;28;20042;-62
2021/06/28 05:09:43;;;;;;;15.68;14.02;;;;;;;25.81;72.38;98433.69;5041778;28;20033;-59
2021/06/28 05:12:10;;;;;;;19.23;13.95;;;;;;;25.86;72.03;98428.66;5036500;28;20075;-60
2021/06/28 05:14:36;;;;;;;15.27;13.70;;;;;;;26.02;71.96;98416.03;5034797;28;20042;-60
2021/06/28 05:17:02;;;;;;;17.73;14.57;;;;;;;26.18;70.79;98415.03;5032427;28;20048;-59
2021/06/28 05:19:27;;;;;;;17.38;14.35;;;;;;;26.28;70.12;98420.13;5046041;28;20052;-61
2021/06/28 05:21:53;;;;;;;17.05;13.07;;;;;;;26.38;69.98;98426.03;5039508;28;20042;-61
2021/06/28 05:24:19;;;;;;;14.77;13.38;;;;;;;26.53;69.86;98426.84;5026868;28;20049;-60
2021/06/28 05:26:45;;;;;;;16.50;13.57;;;;;;;26.60;69.46;98414.44;5060577;28;20041;-61
2021/06/28 05:29:10;;;;;;;15.77;14.13;;;;;;;26.60;69.37;98418.94;5056313;28;20431;-59
2021/06/28 05:31:36;;;;;;;22.33;14.15;;;;;;;26.66;69.33;98427.03;5032236;28;20029;-66
2021/06/28 05:34:01;;;;;;;16.20;14.50;;;;;;;26.56;68.39;98421.97;5030269;28;20045;-65
2021/06/28 05:36:27;;;;;;;15.80;14.10;;;;;;;26.48;68.75;98408.72;5025864;28;20700;-64
2021/06/28 05:39:01;;;;;;;17.52;13.88;;;;;;;26.53;69.39;98417.03;5500555;22;20029;31
2021/06/28 05:41:27;;;;;;;21.17;14.43;;;;;;;26.77;68.99;98437.22;5017460;28;20122;-63
2021/06/28 05:43:52;;;;;;;16.45;14.73;;;;;;;26.88;68.16;98426.13;5023078;28;20033;-62
2021/06/28 05:46:18;;;;;;;15.60;13.98;;;;;;;26.97;67.03;98419.66;5027036;28;20488;-61
2021/06/28 05:48:44;;;;;;;20.17;15.13;;;;;;;26.98;66.34;98417.81;5027241;28;20046;-60
2021/06/28 05:51:10;;;;;;;15.35;13.85;;;;;;;27.03;66.48;98418.06;5033330;28;20120;-65
2021/06/28 05:53:35;;;;;;;17.65;15.40;;;;;;;26.97;67.02;98414.31;5022461;28;20484;-65
2021/06/28 05:56:04;;;;;;;18.13;15.20;;;;;;;27.03;66.52;98412.72;5007669;28;20058;-66
2021/06/28 05:58:30;;;;;;;;;;;;;;;27.22;66.19;98401.44;5015434;28;20125;-64
2021/06/28 06:00:56;;;;;;;18.23;15.18;;;;;;;27.49;64.56;98415.06;5013275;28;20012;-65
2021/06/28 06:03:22;;;;;;;19.15;16.45;;;;;;;27.53;64.76;98417.19;5012258;28;20041;-62
2021/06/28 06:05:48;;;;;;;18.45;16.17;;;;;;;27.55;64.90;98419.66;5012905;28;20736;-62
2021/06/28 06:08:14;;;;;;;19.42;15.98;;;;;;;27.61;64.50;98424.25;5013167;28;20049;-62
2021/06/28 06:10:40;;;;;;;22.67;16.55;;;;;;;27.71;64.66;98424.75;5020359;28;20042;-61
2021/06/28 06:13:07;;;;;;;18.65;15.85;;;;;;;27.78;64.36;98418.47;5017222;28;20050;-60
2021/06/28 06:15:33;;;;;;;19.00;16.33;;;;;;;27.76;63.95;98423.16;5012944;28;20196;-63
2021/06/28 06:17:58;;;;;;;16.90;15.15;;;;;;;27.90;63.47;98433.97;5004981;28;20046;-63
2021/06/28 06:20:24;;;;;;;18.17;15.38;;;;;;;27.97;63.29;98424.97;5007128;28;20042;-61
2021/06/28 06:22:52;;;;;;;18.50;16.20;;;;;;;28.20;63.27;98422.91;5012725;28;20034;-62
2021/06/28 06:25:18;;;;;;;17.97;16.07;;;;;;;28.41;62.44;98421.19;5013434;28;20041;-60
2021/06/28 06:27:43;;;;;;;23.50;17.77;;;;;;;28.55;62.39;98418.38;5013903;28;20463;-62
2021/06/28 06:30:10;;;;;;;20.98;17.30;;;;;;;28.78;61.06;98419.97;5009061;28;20045;-61
2021/06/28 06:32:36;;;;;;;20.85;17.30;;;;;;;29.09;59.27;98417.63;5010094;28;20088;-62
2021/06/28 06:35:02;;;;;;;19.30;17.20;;;;;;;29.37;58.07;98418.31;5011307;28;20046;-61
2021/06/28 06:37:28;;;;;;;18.98;16.92;;;;;;;29.71;57.24;98425.38;5015980;28;20133;-62
2021/06/28 06:39:53;;;;;;;25.02;17.13;;;;;;;29.88;56.86;98423.94;5005778;28;20460;-61
2021/06/28 06:42:19;;;;;;;24.60;18.92;;;;;;;29.84;56.83;98428.06;5000727;28;20039;-61
2021/06/28 06:44:45;;;;;;;28.38;18.02;;;;;;;30.03;56.02;98418.41;5004523;28;20092;-59
2021/06/28 06:47:10;;;;;;;21.38;18.48;;;;;;;30.50;54.91;98427.22;4998949;28;20141;-53
2021/06/28 06:49:36;;;;;;;19.83;17.13;;;;;;;31.06;53.08;98427.44;5006459;28;20147;-64
2021/06/28 06:52:02;;;;;;;18.33;16.50;;;;;;;31.75;50.99;98426.63;5008339;28;20048;-67
2021/06/28 06:54:28;;;;;;;20.08;17.98;;;;;;;32.33;49.68;98425.31;5004948;28;20046;-68
2021/06/28 06:56:53;;;;;;;22.40;17.17;;;;;;;32.91;47.91;98416.81;5001841;28;20519;-68
2021/06/28 06:59:19;;;;;;;23.83;17.08;;;;;;;33.58;45.82;98423.78;5003117;28;20099;-68
2021/06/28 07:01:45;;;;;;;20.02;18.02;;;;;;;34.04;44.41;98424.94;5012590;28;20535;-71
2021/06/28 07:04:11;;;;;;;20.92;18.70;;;;;;;34.63;42.88;98429.28;5021233;28;20077;-68
2021/06/28 07:06:37;;;;;;;22.98;17.15;;;;;;;35.26;41.32;98431.97;5011328;28;20508;-66
2021/06/28 07:09:04;;;;;;;24.35;17.85;;;;;;;35.93;40.34;98423.94;5008844;28;20049;-65
2021/06/28 07:11:29;;;;;;;25.45;18.83;;;;;;;36.29;38.87;98428.03;5013617;28;20046;-65
2021/06/28 07:13:55;;;;;;;22.88;17.80;;;;;;;36.68;38.69;98422.66;5011541;28;20045;-66
2021/06/28 07:16:25;;;;;;;24.35;19.75;;;;;;;37.18;37.20;98417.84;5012804;28;20408;-67
2021/06/28 07:18:51;;;;;;;21.60;19.40;;;;;;;37.61;36.71;98425.09;5010452;28;20129;-68
2021/06/28 07:21:17;;;;;;;22.20;18.73;;;;;;;38.09;35.95;98423.34;5008280;28;20133;-65
2021/06/28 07:23:43;;;;;;;23.98;19.17;;;;;;;38.69;34.71;98433.75;5009996;28;20585;-62
2021/06/28 07:26:08;;;;;;;21.60;18.10;;;;;;;38.73;34.36;98436.78;5014375;28;20052;-66
2021/06/28 07:28:34;;;;;;;25.45;18.92;;;;;;;38.90;33.97;98437.41;5021918;28;20404;-64
2021/06/28 07:31:01;;;;;;;27.65;19.00;;;;;;;39.30;33.19;98443.00;5009477;28;20054;-70
2021/06/28 07:33:31;;;;;;;25.48;20.00;;;;;;;39.68;33.09;98430.00;5011650;28;20124;-69
2021/06/28 07:35:58;;;;;;;27.00;19.42;;;;;;;40.06;32.24;98429.47;5010975;28;20520;-68
2021/06/28 07:38:24;;;;;;;25.27;18.42;;;;;;;40.14;32.23;98431.66;5010290;28;20136;-69
2021/06/28 07:40:50;;;;;;;29.00;20.15;;;;;;;40.37;31.91;98430.28;5003971;28;20100;-68
2021/06/28 07:43:17;;;;;;;27.63;23.98;;;;;;;40.61;31.10;98431.31;4999865;28;20561;-62
2021/06/28 07:45:44;;;;;;;21.98;19.40;;;;;;;40.91;31.18;98432.31;5007519;28;20042;-61
2021/06/28 07:51:05;;;;;;;31.40;28.15;;;;;;;41.42;29.69;98441.03;5017492;23;20069;-59
2021/06/28 07:53:30;;;;;;;26.65;24.10;;;;;;;41.66;29.77;98430.28;4831255;29;20054;-53
2021/06/28 07:55:56;;;;;;;24.75;22.15;;;;;;;41.85;29.31;98440.22;4831993;29;20050;-60
2021/06/28 07:58:22;;;;;;;24.98;21.65;;;;;;;42.07;29.25;98439.78;4834503;29;20046;-63
2021/06/28 08:00:47;;;;;;;25.08;22.40;;;;;;;42.49;28.63;98447.31;5324822;23;20140;-56
2021/06/28 08:03:13;;;;;;;23.52;21.10;;;;;;;42.80;28.34;98441.50;4850255;29;20517;-61
2021/06/28 08:05:41;;;;;;;30.90;27.88;;;;;;;42.98;28.13;98436.06;4850205;29;20049;-59
2021/06/28 08:08:07;;;;;;;28.80;26.10;;;;;;;43.02;27.59;98439.03;4847629;29;20434;-61
2021/06/28 08:10:32;;;;;;;24.20;21.75;;;;;;;42.80;28.10;98444.25;4847926;29;20045;-60
2021/06/28 08:12:58;;;;;;;24.00;21.38;;;;;;;41.50;29.83;98450.59;4846575;29;20134;-64
2021/06/28 08:15:25;;;;;;;25.20;20.53;;;;;;;40.32;31.07;98429.47;4850715;29;20048;-67
2021/06/28 08:17:51;;;;;;;22.80;20.50;;;;;;;39.48;32.04;98419.91;4848564;29;20418;-64
2021/06/28 08:20:18;;;;;;;22.83;19.60;;;;;;;38.58;33.06;98420.41;4847767;29;20049;-66
2021/06/28 08:22:45;;;;;;;27.55;20.33;;;;;;;36.81;36.10;98420.38;4849393;29;20049;-65
2021/06/28 08:25:11;;;;;;;25.70;19.95;;;;;;;35.94;37.52;98409.38;4837312;29;20528;-66
2021/06/28 08:27:37;;;;;;;23.50;20.52;;;;;;;36.14;37.99;98405.31;4839241;29;20441;-65
2021/06/28 08:30:14;;;;;;;27.88;19.50;;;;;;;36.44;38.20;98408.47;5281908;23;20036;31
2021/06/28 08:32:39;;;;;;;22.88;19.45;;;;;;;36.19;37.94;98408.13;4816984;29;20144;-67
2021/06/28 08:35:06;;;;;;;24.55;20.38;;;;;;;35.73;38.59;98402.00;4822099;29;20141;-67
2021/06/28 08:37:31;;;;;;;24.83;21.05;;;;;;;35.74;38.48;98392.00;4821712;29;20491;-70
2021/06/28 08:40:07;;;;;;;22.60;20.13;;;;;;;34.82;40.09;98384.03;4828339;29;20051;-62
2021/06/28 08:42:34;;;;;;;23.40;20.70;;;;;;;34.84;40.13;98377.34;4829433;29;20050;-61
2021/06/28 08:44:59;;;;;;;26.17;20.52;;;;;;;34.86;40.67;98374.38;4836270;29;20055;-62
2021/06/28 08:47:27;;;;;;;23.65;20.80;;;;;;;34.58;41.62;98366.25;4820424;29;20102;-62
2021/06/28 08:49:53;;;;;;;27.15;21.83;;;;;;;33.97;42.58;98356.78;4819192;29;20042;-57
2021/06/28 08:52:20;;;;;;;32.05;21.40;;;;;;;33.55;43.13;98354.16;4818075;29;20050;-59
2021/06/28 08:54:46;;;;;;;28.55;21.70;;;;;;;33.10;44.45;98348.41;4814899;29;20046;-58
2021/06/28 08:57:11;;;;;;;28.73;21.20;;;;;;;32.80;45.39;98336.81;4817491;29;20051;-57
2021/06/28 08:59:40;;;;;;;25.38;20.42;;;;;;;32.53;46.40;98327.41;4820827;29;20061;-56
2021/06/28 09:02:06;;;;;;;25.30;19.88;;;;;;;32.46;46.96;98323.97;4835168;29;20068;-55
2021/06/28 09:04:32;;;;;;;29.10;21.85;;;;;;;32.72;47.40;98327.16;4838850;29;20046;-54
2021/06/28 09:07:19;;;;;;;28.65;21.25;;;;;;;33.06;46.58;98322.16;4822098;29;20035;-54
2021/06/28 09:09:45;;;;;;;26.13;20.75;;;;;;;33.03;46.56;98314.50;4828503;29;20129;-54
2021/06/28 09:12:15;;;;;;;30.65;21.73;;;;;;;32.82;46.64;98318.53;4835531;29;20194;-51
2021/06/28 09:14:46;;;;;;;26.90;21.92;;;;;;;32.56;47.36;98316.16;4839825;29;20497;-52
2021/06/28 09:17:28;;;;;;;22.67;20.38;;;;;;;33.97;44.54;98308.22;4838848;29;20136;-54
2021/06/28 09:20:22;;;;;;;27.42;22.10;;;;;;;36.30;39.32;98293.50;4820943;29;20057;-52
2021/06/28 09:22:49;;;;;;;33.13;21.58;;;;;;;38.01;37.14;98301.66;4818733;29;20142;-50
2021/06/28 09:25:30;;;;;;;29.55;21.52;;;;;;;38.45;35.83;98307.59;4819105;29;20039;-51
2021/06/28 09:27:56;;;;;;;25.98;23.17;;;;;;;39.45;34.45;98308.09;4807682;29;20462;-54
2021/06/28 09:30:23;;;;;;;26.95;22.50;;;;;;;40.21;32.76;98297.94;4817639;29;20051;-50
2021/06/28 09:32:53;;;;;;;31.17;23.87;;;;;;;41.11;30.81;98292.31;4812904;29;20079;-50
2021/06/28 09:35:36;;;;;;;27.63;22.13;;;;;;;41.63;30.31;98302.53;4813538;29;20803;-51
2021/06/28 09:38:07;;;;;;;30.88;25.45;;;;;;;42.19;29.70;98302.75;4817817;29;20050;-50
2021/06/28 09:40:34;;;;;;;40.25;35.67;;;;;;;41.63;30.92;98303.34;4818181;29;20418;-51
2021/06/28 09:42:59;;;;;;;27.88;24.15;;;;;;;39.86;33.31;98317.06;4812474;29;20046;-50
2021/06/28 09:45:25;;;;;;;23.42;20.92;;;;;;;38.21;35.76;98326.19;4824841;29;20061;-59
2021/06/28 09:47:51;;;;;;;24.30;21.27;;;;;;;37.08;37.84;98332.88;4837292;29;20046;-51
2021/06/28 09:50:19;;;;;;;30.85;24.25;;;;;;;36.28;39.33;98337.06;4831745;29;20466;-53
2021/06/28 09:52:51;;;;;;;30.05;22.48;;;;;;;35.52;40.70;98327.78;4828811;29;20051;-52
2021/06/28 09:55:20;;;;;;;29.50;22.15;;;;;;;34.91;42.24;98312.38;4806305;29;20047;-54
2021/06/28 09:58:05;;;;;;;29.13;25.77;;;;;;;34.34;43.86;98301.50;4806236;29;20058;-58
2021/06/28 10:00:32;;;;;;;30.52;23.95;;;;;;;33.87;45.25;98308.81;4813189;29;20055;-58
2021/06/28 10:02:58;;;;;;;32.85;28.63;;;;;;;33.44;46.73;98328.03;4824516;29;20061;-60
2021/06/28 10:05:30;;;;;;;31.17;25.42;;;;;;;32.99;48.15;98367.19;4824153;29;20042;-60
2021/06/28 10:07:56;;;;;;;32.85;22.40;;;;;;;32.31;49.94;98383.53;4824445;29;20050;-60
2021/06/28 10:10:29;;;;;;;21.90;10.15;;;;;;;30.29;58.13;98439.81;4824499;29;20111;-53
2021/06/28 10:13:04;;;;;;;55.85;14.65;;;;;;;27.42;74.25;98472.91;4824078;29;20141;-56
2021/06/28 10:15:35;;;;;;;39.22;9.93;;;;;;;25.40;96.93;98449.13;4824064;29;20047;-53
2021/06/28 10:18:05;;;;;;;96.28;21.38;;;;;;;24.00;100.00;98494.09;4828930;29;20090;-50
2021/06/28 10:20:33;;;;;;;54.95;15.60;;;;;;;22.86;100.00;98508.06;4810687;29;20043;-49
2021/06/28 10:22:59;;;;;;;103.97;18.33;;;;;;;21.98;100.00;98578.78;4814743;29;20046;-50
2021/06/28 10:25:26;;;;;;;46.17;23.58;;;;;;;21.26;100.00;98508.22;4806523;29;20172;-51
2021/06/28 10:27:52;;;;;;;96.55;28.42;;;;;;;21.19;100.00;98509.00;4815347;29;20042;-48
2021/06/28 10:30:20;;;;;;;71.10;25.30;;;;;;;21.01;100.00;98546.75;4814160;29;20053;-52
2021/06/28 10:32:50;;;;;;;59.95;21.98;;;;;;;20.92;100.00;98586.41;4814704;29;20055;-48
2021/06/28 10:35:23;;;;;;;150.40;34.03;;;;;;;20.79;100.00;98605.22;4805947;29;20118;-48
2021/06/28 10:37:50;;;;;;;125.07;33.92;;;;;;;20.73;100.00;98582.00;4822030;29;20050;-48
2021/06/28 10:43:28;;;;;;;119.43;15.00;;;;;;;19.96;100.00;98555.69;5138323;23;20421;-48
2021/06/28 10:45:55;;;;;;;75.68;10.90;;;;;;;19.65;100.00;98501.41;4852687;29;20056;-50
2021/06/28 10:48:22;;;;;;;44.53;8.13;;;;;;;19.60;100.00;98448.28;4836742;29;20056;-46
2021/06/28 10:51:08;;;;;;;37.13;8.05;;;;;;;19.61;100.00;98452.56;4848688;29;20053;-55
2021/06/28 10:53:57;;;;;;;22.48;10.10;;;;;;;19.62;100.00;98420.81;4800018;29;20119;-51
2021/06/28 10:56:47;;;;;;;15.25;8.77;;;;;;;19.65;100.00;98390.69;4796944;29;20094;-51
2021/06/28 10:59:43;;;;;;;18.23;10.70;;;;;;;19.72;100.00;98384.72;4800769;29;20057;-46
2021/06/28 11:02:36;;;;;;;18.75;11.40;;;;;;;19.78;100.00;98397.28;4794414;29;20501;-48
2021/06/28 11:05:20;;;;;;;20.73;12.00;;;;;;;19.86;100.00;98386.06;4802908;29;20070;-45
2021/06/28 11:08:19;;;;;;;21.13;12.85;;;;;;;19.90;100.00;98371.59;4802719;29;20107;-51
2021/06/28 11:11:03;;;;;;;;;;;;;;;19.97;100.00;98362.16;4803162;29;20085;-47
2021/06/28 11:13:54;;;;;;;26.35;16.17;;;;;;;20.09;100.00;98363.66;4802845;29;19932;-46
2021/06/28 11:16:40;;;;;;;29.98;18.05;;;;;;;20.44;100.00;98370.88;4791997;29;20145;-47
2021/06/28 11:19:54;;;;;;;28.42;17.65;;;;;;;20.65;100.00;98378.53;4802552;29;20054;-51
2021/06/28 11:23:02;;;;;;;34.88;19.42;;;;;;;20.61;100.00;98377.19;4803360;29;20103;-48
2021/06/28 11:25:47;;;;;;;27.83;18.33;;;;;;;20.75;100.00;98379.31;4810783;29;20153;-46
2021/06/28 11:28:18;;;;;;;27.63;17.25;;;;;;;20.87;100.00;98372.84;4837886;29;20057;-49